sensor_id;sensor_type;location;lat;lon;timestamp;temperature;humidity
9919;DHT22;4998;51.024;13.828;2023-05-15T00:00:44;17.30;65.00
9919;DHT22;4998;51.024;13.828;2023-05-15T00:03:11;17.30;65.10
9919;DHT22;4998;51.024;13.828;2023-05-15T00:05:38;17.20;65.20
9919;DHT22;4998;51.024;13.828;2023-05-15T00:08:07;17.20;65.30
9919;DHT22;4998;51.024;13.828;2023-05-15T00:10:34;17.20;65.70
9919;DHT22;4998;51.024;13.828;2023-05-15T00:13:01;17.10;65.70
9919;DHT22;4998;51.024;13.828;2023-05-15T00:15:28;17.10;65.80
9919;DHT22;4998;51.024;13.828;2023-05-15T00:17:55;17.10;66.00
9919;DHT22;4998;51.024;13.828;2023-05-15T00:20:22;17.00;66.20
9919;DHT22;4998;51.024;13.828;2023-05-15T00:22:49;17.00;66.30
9919;DHT22;4998;51.024;13.828;2023-05-15T00:25:17;17.00;66.50
9919;DHT22;4998;51.024;13.828;2023-05-15T00:27:44;17.00;66.90
9919;DHT22;4998;51.024;13.828;2023-05-15T00:30:13;17.00;67.00
9919;DHT22;4998;51.024;13.828;2023-05-15T00:32:40;16.90;67.20
9919;DHT22;4998;51.024;13.828;2023-05-15T00:35:07;16.90;67.10
9919;DHT22;4998;51.024;13.828;2023-05-15T00:37:34;16.90;67.30
9919;DHT22;4998;51.024;13.828;2023-05-15T00:40:02;16.90;67.40
9919;DHT22;4998;51.024;13.828;2023-05-15T00:42:31;16.90;67.50
9919;DHT22;4998;51.024;13.828;2023-05-15T00:45:00;16.80;67.70
9919;DHT22;4998;51.024;13.828;2023-05-15T00:47:28;16.80;67.70
9919;DHT22;4998;51.024;13.828;2023-05-15T00:49:56;16.60;67.30
9919;DHT22;4998;51.024;13.828;2023-05-15T00:52:23;16.70;67.60
9919;DHT22;4998;51.024;13.828;2023-05-15T00:54:50;16.60;67.60
9919;DHT22;4998;51.024;13.828;2023-05-15T00:57:18;16.50;67.90
9919;DHT22;4998;51.024;13.828;2023-05-15T00:59:49;16.50;68.30
9919;DHT22;4998;51.024;13.828;2023-05-15T01:02:17;16.40;69.00
9919;DHT22;4998;51.024;13.828;2023-05-15T01:04:45;16.40;68.90
9919;DHT22;4998;51.024;13.828;2023-05-15T01:07:12;16.30;69.10
9919;DHT22;4998;51.024;13.828;2023-05-15T01:09:41;16.30;69.40
9919;DHT22;4998;51.024;13.828;2023-05-15T01:12:09;16.30;70.10
9919;DHT22;4998;51.024;13.828;2023-05-15T01:14:37;16.30;70.20
9919;DHT22;4998;51.024;13.828;2023-05-15T01:17:05;16.30;70.50
9919;DHT22;4998;51.024;13.828;2023-05-15T01:19:32;16.30;70.90
9919;DHT22;4998;51.024;13.828;2023-05-15T01:22:21;16.30;71.10
9919;DHT22;4998;51.024;13.828;2023-05-15T01:27:48;16.30;71.90
9919;DHT22;4998;51.024;13.828;2023-05-15T01:30:21;16.40;72.00
9919;DHT22;4998;51.024;13.828;2023-05-15T01:32:54;16.40;72.10
9919;DHT22;4998;51.024;13.828;2023-05-15T01:35:29;16.40;72.20
9919;DHT22;4998;51.024;13.828;2023-05-15T01:38:04;16.40;72.40
9919;DHT22;4998;51.024;13.828;2023-05-15T01:40:31;16.40;72.60
9919;DHT22;4998;51.024;13.828;2023-05-15T01:43:03;16.40;72.20
9919;DHT22;4998;51.024;13.828;2023-05-15T01:45:34;16.50;72.70
9919;DHT22;4998;51.024;13.828;2023-05-15T01:48:04;16.50;72.50
9919;DHT22;4998;51.024;13.828;2023-05-15T01:50:34;16.50;72.70
9919;DHT22;4998;51.024;13.828;2023-05-15T01:53:01;16.50;72.60
9919;DHT22;4998;51.024;13.828;2023-05-15T01:55:29;16.50;72.60
9919;DHT22;4998;51.024;13.828;2023-05-15T01:58:00;16.40;72.60
9919;DHT22;4998;51.024;13.828;2023-05-15T02:00:27;16.40;73.10
9919;DHT22;4998;51.024;13.828;2023-05-15T02:02:55;16.40;73.00
9919;DHT22;4998;51.024;13.828;2023-05-15T02:05:24;16.40;73.50
9919;DHT22;4998;51.024;13.828;2023-05-15T02:07:51;16.40;73.60
9919;DHT22;4998;51.024;13.828;2023-05-15T02:10:19;16.40;73.90
9919;DHT22;4998;51.024;13.828;2023-05-15T02:12:48;16.40;74.10
9919;DHT22;4998;51.024;13.828;2023-05-15T02:15:17;16.40;74.40
9919;DHT22;4998;51.024;13.828;2023-05-15T02:17:44;16.40;74.70
9919;DHT22;4998;51.024;13.828;2023-05-15T02:20:12;16.40;74.70
9919;DHT22;4998;51.024;13.828;2023-05-15T02:22:39;16.40;74.80
9919;DHT22;4998;51.024;13.828;2023-05-15T02:25:06;16.40;74.90
9919;DHT22;4998;51.024;13.828;2023-05-15T02:27:37;16.40;75.10
9919;DHT22;4998;51.024;13.828;2023-05-15T02:30:26;16.40;75.40
9919;DHT22;4998;51.024;13.828;2023-05-15T02:33:04;16.50;75.80
9919;DHT22;4998;51.024;13.828;2023-05-15T02:35:39;16.50;75.80
9919;DHT22;4998;51.024;13.828;2023-05-15T02:38:11;16.50;75.70
9919;DHT22;4998;51.024;13.828;2023-05-15T02:40:39;16.50;75.80
9919;DHT22;4998;51.024;13.828;2023-05-15T02:43:07;16.50;75.70
9919;DHT22;4998;51.024;13.828;2023-05-15T02:45:38;16.40;75.70
9919;DHT22;4998;51.024;13.828;2023-05-15T02:48:06;16.40;76.20
9919;DHT22;4998;51.024;13.828;2023-05-15T02:50:34;16.40;76.10
9919;DHT22;4998;51.024;13.828;2023-05-15T02:53:02;16.40;76.20
9919;DHT22;4998;51.024;13.828;2023-05-15T02:55:29;16.40;76.50
9919;DHT22;4998;51.024;13.828;2023-05-15T02:57:56;16.40;76.70
9919;DHT22;4998;51.024;13.828;2023-05-15T03:00:23;16.30;76.80
9919;DHT22;4998;51.024;13.828;2023-05-15T03:02:52;16.40;77.20
9919;DHT22;4998;51.024;13.828;2023-05-15T03:05:19;16.30;77.40
9919;DHT22;4998;51.024;13.828;2023-05-15T03:07:46;16.30;77.30
9919;DHT22;4998;51.024;13.828;2023-05-15T03:10:13;16.30;77.50
9919;DHT22;4998;51.024;13.828;2023-05-15T03:12:41;16.30;77.60
9919;DHT22;4998;51.024;13.828;2023-05-15T03:15:08;16.30;77.80
9919;DHT22;4998;51.024;13.828;2023-05-15T03:17:35;16.30;77.80
9919;DHT22;4998;51.024;13.828;2023-05-15T03:20:04;16.30;78.10
9919;DHT22;4998;51.024;13.828;2023-05-15T03:22:31;16.30;78.40
9919;DHT22;4998;51.024;13.828;2023-05-15T03:24:58;16.20;78.10
9919;DHT22;4998;51.024;13.828;2023-05-15T03:27:26;16.20;78.30
9919;DHT22;4998;51.024;13.828;2023-05-15T03:29:53;16.20;78.40
9919;DHT22;4998;51.024;13.828;2023-05-15T03:32:20;16.20;78.60
9919;DHT22;4998;51.024;13.828;2023-05-15T03:34:47;16.10;78.70
9919;DHT22;4998;51.024;13.828;2023-05-15T03:37:16;16.10;78.80
9919;DHT22;4998;51.024;13.828;2023-05-15T03:39:43;16.10;79.20
9919;DHT22;4998;51.024;13.828;2023-05-15T03:42:10;16.10;78.90
9919;DHT22;4998;51.024;13.828;2023-05-15T03:44:37;16.10;78.90
9919;DHT22;4998;51.024;13.828;2023-05-15T03:47:04;16.10;79.00
9919;DHT22;4998;51.024;13.828;2023-05-15T03:49:32;16.00;79.00
9919;DHT22;4998;51.024;13.828;2023-05-15T03:51:59;16.00;79.00
9919;DHT22;4998;51.024;13.828;2023-05-15T03:54:27;16.00;79.30
9919;DHT22;4998;51.024;13.828;2023-05-15T03:56:54;16.00;79.70
9919;DHT22;4998;51.024;13.828;2023-05-15T03:59:21;16.00;79.80
9919;DHT22;4998;51.024;13.828;2023-05-15T04:01:48;16.00;80.00
9919;DHT22;4998;51.024;13.828;2023-05-15T04:04:15;16.00;80.10
9919;DHT22;4998;51.024;13.828;2023-05-15T04:06:42;16.00;80.10
9919;DHT22;4998;51.024;13.828;2023-05-15T04:09:09;16.00;80.10
9919;DHT22;4998;51.024;13.828;2023-05-15T04:11:37;16.00;80.30
9919;DHT22;4998;51.024;13.828;2023-05-15T04:14:04;16.00;80.60
9919;DHT22;4998;51.024;13.828;2023-05-15T04:16:31;16.10;80.60
9919;DHT22;4998;51.024;13.828;2023-05-15T04:18:58;16.10;80.70
9919;DHT22;4998;51.024;13.828;2023-05-15T04:21:25;16.10;80.80
9919;DHT22;4998;51.024;13.828;2023-05-15T04:23:52;16.10;81.00
9919;DHT22;4998;51.024;13.828;2023-05-15T04:26:19;16.10;81.10
9919;DHT22;4998;51.024;13.828;2023-05-15T04:28:48;16.10;81.30
9919;DHT22;4998;51.024;13.828;2023-05-15T04:31:15;16.10;81.80
9919;DHT22;4998;51.024;13.828;2023-05-15T04:33:42;16.20;82.00
9919;DHT22;4998;51.024;13.828;2023-05-15T04:36:09;16.20;82.00
9919;DHT22;4998;51.024;13.828;2023-05-15T04:38:36;16.20;81.90
9919;DHT22;4998;51.024;13.828;2023-05-15T04:41:03;16.20;81.80
9919;DHT22;4998;51.024;13.828;2023-05-15T04:43:30;16.30;82.10
9919;DHT22;4998;51.024;13.828;2023-05-15T04:45:58;16.30;82.10
9919;DHT22;4998;51.024;13.828;2023-05-15T04:48:25;16.30;82.40
9919;DHT22;4998;51.024;13.828;2023-05-15T04:50:52;16.40;82.40
9919;DHT22;4998;51.024;13.828;2023-05-15T04:53:19;16.40;82.60
9919;DHT22;4998;51.024;13.828;2023-05-15T04:55:46;16.40;82.50
9919;DHT22;4998;51.024;13.828;2023-05-15T04:58:16;16.40;82.40
9919;DHT22;4998;51.024;13.828;2023-05-15T05:00:43;16.40;82.20
9919;DHT22;4998;51.024;13.828;2023-05-15T05:03:11;16.40;81.90
9919;DHT22;4998;51.024;13.828;2023-05-15T05:05:38;16.40;82.20
9919;DHT22;4998;51.024;13.828;2023-05-15T05:08:05;16.40;82.20
9919;DHT22;4998;51.024;13.828;2023-05-15T05:10:32;16.40;82.60
9919;DHT22;4998;51.024;13.828;2023-05-15T05:12:59;16.40;82.90
9919;DHT22;4998;51.024;13.828;2023-05-15T05:15:26;16.40;83.10
9919;DHT22;4998;51.024;13.828;2023-05-15T05:17:53;16.50;83.10
9919;DHT22;4998;51.024;13.828;2023-05-15T05:20:21;16.50;82.90
9919;DHT22;4998;51.024;13.828;2023-05-15T05:22:48;16.50;83.40
9919;DHT22;4998;51.024;13.828;2023-05-15T05:25:15;16.50;83.30
9919;DHT22;4998;51.024;13.828;2023-05-15T05:27:43;16.50;83.20
9919;DHT22;4998;51.024;13.828;2023-05-15T05:30:10;16.50;83.00
9919;DHT22;4998;51.024;13.828;2023-05-15T05:32:37;16.60;83.40
9919;DHT22;4998;51.024;13.828;2023-05-15T05:35:05;16.60;83.30
9919;DHT22;4998;51.024;13.828;2023-05-15T05:37:33;16.60;83.40
9919;DHT22;4998;51.024;13.828;2023-05-15T05:40:00;16.60;83.70
9919;DHT22;4998;51.024;13.828;2023-05-15T05:42:27;16.60;83.70
9919;DHT22;4998;51.024;13.828;2023-05-15T05:44:54;16.60;83.70
9919;DHT22;4998;51.024;13.828;2023-05-15T05:47:21;16.60;83.30
9919;DHT22;4998;51.024;13.828;2023-05-15T05:49:48;16.70;84.40
9919;DHT22;4998;51.024;13.828;2023-05-15T05:52:15;16.60;83.80
9919;DHT22;4998;51.024;13.828;2023-05-15T05:54:43;16.70;83.80
9919;DHT22;4998;51.024;13.828;2023-05-15T05:57:12;16.70;84.00
9919;DHT22;4998;51.024;13.828;2023-05-15T05:59:40;16.70;84.10
9919;DHT22;4998;51.024;13.828;2023-05-15T06:02:07;16.70;84.30
9919;DHT22;4998;51.024;13.828;2023-05-15T06:04:34;16.70;84.20
9919;DHT22;4998;51.024;13.828;2023-05-15T06:07:02;16.70;84.00
9919;DHT22;4998;51.024;13.828;2023-05-15T06:09:29;16.70;84.60
9919;DHT22;4998;51.024;13.828;2023-05-15T06:11:57;16.70;84.60
9919;DHT22;4998;51.024;13.828;2023-05-15T06:14:25;16.70;84.80
9919;DHT22;4998;51.024;13.828;2023-05-15T06:16:52;16.70;84.60
9919;DHT22;4998;51.024;13.828;2023-05-15T06:19:19;16.70;84.90
9919;DHT22;4998;51.024;13.828;2023-05-15T06:21:46;16.70;85.20
9919;DHT22;4998;51.024;13.828;2023-05-15T06:24:14;16.70;85.50
9919;DHT22;4998;51.024;13.828;2023-05-15T06:26:41;16.80;85.80
9919;DHT22;4998;51.024;13.828;2023-05-15T06:29:09;16.80;86.00
9919;DHT22;4998;51.024;13.828;2023-05-15T06:31:36;16.80;86.00
9919;DHT22;4998;51.024;13.828;2023-05-15T06:34:03;16.80;85.70
9919;DHT22;4998;51.024;13.828;2023-05-15T06:36:31;16.90;86.00
9919;DHT22;4998;51.024;13.828;2023-05-15T06:38:58;16.90;86.30
9919;DHT22;4998;51.024;13.828;2023-05-15T06:41:25;17.00;86.60
9919;DHT22;4998;51.024;13.828;2023-05-15T06:43:52;17.00;86.50
9919;DHT22;4998;51.024;13.828;2023-05-15T06:46:21;17.10;87.70
9919;DHT22;4998;51.024;13.828;2023-05-15T06:48:48;17.10;87.20
9919;DHT22;4998;51.024;13.828;2023-05-15T06:51:15;17.20;87.10
9919;DHT22;4998;51.024;13.828;2023-05-15T06:53:42;17.20;87.00
9919;DHT22;4998;51.024;13.828;2023-05-15T06:56:09;17.30;86.80
9919;DHT22;4998;51.024;13.828;2023-05-15T06:58:36;17.30;86.80
9919;DHT22;4998;51.024;13.828;2023-05-15T07:01:03;17.40;87.10
9919;DHT22;4998;51.024;13.828;2023-05-15T07:03:33;17.50;88.00
9919;DHT22;4998;51.024;13.828;2023-05-15T07:06:00;17.60;87.10
9919;DHT22;4998;51.024;13.828;2023-05-15T07:08:27;17.60;86.90
9919;DHT22;4998;51.024;13.828;2023-05-15T07:10:53;17.70;87.00
9919;DHT22;4998;51.024;13.828;2023-05-15T07:13:20;17.80;87.30
9919;DHT22;4998;51.024;13.828;2023-05-15T07:15:47;17.90;87.30
9919;DHT22;4998;51.024;13.828;2023-05-15T07:18:14;18.00;86.80
9919;DHT22;4998;51.024;13.828;2023-05-15T07:20:43;18.00;86.50
9919;DHT22;4998;51.024;13.828;2023-05-15T07:23:10;18.10;86.40
9919;DHT22;4998;51.024;13.828;2023-05-15T07:25:37;18.20;86.30
9919;DHT22;4998;51.024;13.828;2023-05-15T07:28:04;18.20;86.30
9919;DHT22;4998;51.024;13.828;2023-05-15T07:30:31;18.30;86.20
9919;DHT22;4998;51.024;13.828;2023-05-15T07:32:58;18.40;86.30
9919;DHT22;4998;51.024;13.828;2023-05-15T07:35:25;18.40;86.00
9919;DHT22;4998;51.024;13.828;2023-05-15T07:37:53;18.50;85.90
9919;DHT22;4998;51.024;13.828;2023-05-15T07:40:20;18.60;85.50
9919;DHT22;4998;51.024;13.828;2023-05-15T07:42:47;18.60;85.00
9919;DHT22;4998;51.024;13.828;2023-05-15T07:45:14;18.70;85.20
9919;DHT22;4998;51.024;13.828;2023-05-15T07:47:44;18.70;84.80
9919;DHT22;4998;51.024;13.828;2023-05-15T07:50:11;18.80;84.40
9919;DHT22;4998;51.024;13.828;2023-05-15T07:52:38;18.80;84.00
9919;DHT22;4998;51.024;13.828;2023-05-15T07:55:08;18.80;83.80
9919;DHT22;4998;51.024;13.828;2023-05-15T07:57:35;18.80;83.90
9919;DHT22;4998;51.024;13.828;2023-05-15T08:00:03;18.90;84.00
9919;DHT22;4998;51.024;13.828;2023-05-15T08:02:35;18.90;83.50
9919;DHT22;4998;51.024;13.828;2023-05-15T08:05:02;18.90;82.80
9919;DHT22;4998;51.024;13.828;2023-05-15T08:07:30;19.00;83.10
9919;DHT22;4998;51.024;13.828;2023-05-15T08:09:58;19.00;82.80
9919;DHT22;4998;51.024;13.828;2023-05-15T08:12:26;19.00;82.20
9919;DHT22;4998;51.024;13.828;2023-05-15T08:14:54;19.00;81.90
9919;DHT22;4998;51.024;13.828;2023-05-15T08:17:22;19.10;81.80
9919;DHT22;4998;51.024;13.828;2023-05-15T08:19:50;19.10;81.70
9919;DHT22;4998;51.024;13.828;2023-05-15T08:22:17;19.20;81.30
9919;DHT22;4998;51.024;13.828;2023-05-15T08:24:44;19.20;81.00
9919;DHT22;4998;51.024;13.828;2023-05-15T08:27:11;19.30;81.00
9919;DHT22;4998;51.024;13.828;2023-05-15T08:29:40;19.30;81.30
9919;DHT22;4998;51.024;13.828;2023-05-15T08:32:08;19.40;80.80
9919;DHT22;4998;51.024;13.828;2023-05-15T08:34:35;19.40;80.40
9919;DHT22;4998;51.024;13.828;2023-05-15T08:37:03;19.50;80.10
9919;DHT22;4998;51.024;13.828;2023-05-15T08:39:30;19.50;79.90
9919;DHT22;4998;51.024;13.828;2023-05-15T08:42:05;19.50;79.30
9919;DHT22;4998;51.024;13.828;2023-05-15T08:44:34;19.60;78.80
9919;DHT22;4998;51.024;13.828;2023-05-15T08:47:04;19.60;78.70
9919;DHT22;4998;51.024;13.828;2023-05-15T08:49:35;19.60;78.60
9919;DHT22;4998;51.024;13.828;2023-05-15T08:52:06;19.60;78.70
9919;DHT22;4998;51.024;13.828;2023-05-15T08:54:34;19.60;78.70
9919;DHT22;4998;51.024;13.828;2023-05-15T08:57:01;19.70;78.80
9919;DHT22;4998;51.024;13.828;2023-05-15T08:59:29;19.70;77.70
9919;DHT22;4998;51.024;13.828;2023-05-15T09:01:56;19.70;77.70
9919;DHT22;4998;51.024;13.828;2023-05-15T09:04:24;19.70;77.70
9919;DHT22;4998;51.024;13.828;2023-05-15T09:06:52;19.70;77.50
9919;DHT22;4998;51.024;13.828;2023-05-15T09:09:19;19.70;77.20
9919;DHT22;4998;51.024;13.828;2023-05-15T09:11:47;19.70;77.20
9919;DHT22;4998;51.024;13.828;2023-05-15T09:14:15;19.70;77.10
9919;DHT22;4998;51.024;13.828;2023-05-15T09:16:42;19.70;77.20
9919;DHT22;4998;51.024;13.828;2023-05-15T09:19:11;19.60;77.30
9919;DHT22;4998;51.024;13.828;2023-05-15T09:21:41;19.70;77.30
9919;DHT22;4998;51.024;13.828;2023-05-15T09:24:18;19.70;77.20
9919;DHT22;4998;51.024;13.828;2023-05-15T09:27:00;19.70;77.20
9919;DHT22;4998;51.024;13.828;2023-05-15T09:29:29;19.70;77.20
9919;DHT22;4998;51.024;13.828;2023-05-15T09:31:56;19.80;78.10
9919;DHT22;4998;51.024;13.828;2023-05-15T09:34:31;19.80;77.10
9919;DHT22;4998;51.024;13.828;2023-05-15T09:37:01;19.80;77.10
9919;DHT22;4998;51.024;13.828;2023-05-15T09:39:29;19.90;77.10
9919;DHT22;4998;51.024;13.828;2023-05-15T09:42:05;19.90;76.40
9919;DHT22;4998;51.024;13.828;2023-05-15T09:44:32;20.00;75.40
9919;DHT22;4998;51.024;13.828;2023-05-15T09:47:01;19.90;75.10
9919;DHT22;4998;51.024;13.828;2023-05-15T09:49:31;20.00;74.50
9919;DHT22;4998;51.024;13.828;2023-05-15T09:51:59;19.80;74.40
9919;DHT22;4998;51.024;13.828;2023-05-15T09:54:27;20.00;74.30
9919;DHT22;4998;51.024;13.828;2023-05-15T09:56:55;20.00;74.50
9919;DHT22;4998;51.024;13.828;2023-05-15T09:59:23;20.00;74.40
9919;DHT22;4998;51.024;13.828;2023-05-15T10:01:50;20.10;74.30
9919;DHT22;4998;51.024;13.828;2023-05-15T10:04:17;20.10;73.50
9919;DHT22;4998;51.024;13.828;2023-05-15T10:06:45;20.10;72.70
9919;DHT22;4998;51.024;13.828;2023-05-15T10:09:14;20.20;72.10
9919;DHT22;4998;51.024;13.828;2023-05-15T10:11:44;20.20;71.70
9919;DHT22;4998;51.024;13.828;2023-05-15T10:14:12;20.20;72.10
9919;DHT22;4998;51.024;13.828;2023-05-15T10:16:40;20.30;71.40
9919;DHT22;4998;51.024;13.828;2023-05-15T10:19:08;20.30;71.10
9919;DHT22;4998;51.024;13.828;2023-05-15T10:21:39;20.30;71.00
9919;DHT22;4998;51.024;13.828;2023-05-15T10:24:06;20.40;70.90
9919;DHT22;4998;51.024;13.828;2023-05-15T10:26:36;20.40;70.50
9919;DHT22;4998;51.024;13.828;2023-05-15T10:29:05;20.50;69.90
9919;DHT22;4998;51.024;13.828;2023-05-15T10:31:33;20.50;68.60
9919;DHT22;4998;51.024;13.828;2023-05-15T10:34:01;20.60;68.60
9919;DHT22;4998;51.024;13.828;2023-05-15T10:36:29;20.60;68.80
9919;DHT22;4998;51.024;13.828;2023-05-15T10:38:59;20.60;68.90
9919;DHT22;4998;51.024;13.828;2023-05-15T10:41:28;20.70;68.50
9919;DHT22;4998;51.024;13.828;2023-05-15T10:43:58;20.80;68.20
9919;DHT22;4998;51.024;13.828;2023-05-15T10:46:25;20.90;67.80
9919;DHT22;4998;51.024;13.828;2023-05-15T10:48:52;21.00;67.50
9919;DHT22;4998;51.024;13.828;2023-05-15T10:51:23;21.00;67.30
9919;DHT22;4998;51.024;13.828;2023-05-15T10:53:51;21.10;66.50
9919;DHT22;4998;51.024;13.828;2023-05-15T10:56:18;21.20;66.50
9919;DHT22;4998;51.024;13.828;2023-05-15T10:58:46;21.20;66.20
9919;DHT22;4998;51.024;13.828;2023-05-15T11:01:28;21.30;65.30
9919;DHT22;4998;51.024;13.828;2023-05-15T11:04:10;21.30;65.10
9919;DHT22;4998;51.024;13.828;2023-05-15T11:06:38;21.30;64.30
9919;DHT22;4998;51.024;13.828;2023-05-15T11:09:36;21.40;64.60
9919;DHT22;4998;51.024;13.828;2023-05-15T11:12:05;21.40;64.20
9919;DHT22;4998;51.024;13.828;2023-05-15T11:14:36;21.50;64.00
9919;DHT22;4998;51.024;13.828;2023-05-15T11:17:06;21.50;63.40
9919;DHT22;4998;51.024;13.828;2023-05-15T11:19:35;21.60;63.00
9919;DHT22;4998;51.024;13.828;2023-05-15T11:22:15;21.60;62.80
9919;DHT22;4998;51.024;13.828;2023-05-15T11:24:54;21.70;62.30
9919;DHT22;4998;51.024;13.828;2023-05-15T11:27:22;21.80;61.30
9919;DHT22;4998;51.024;13.828;2023-05-15T11:30:09;21.90;61.60
9919;DHT22;4998;51.024;13.828;2023-05-15T11:32:55;22.00;61.40
9919;DHT22;4998;51.024;13.828;2023-05-15T11:35:25;22.10;61.20
9919;DHT22;4998;51.024;13.828;2023-05-15T11:37:53;22.20;60.20
9919;DHT22;4998;51.024;13.828;2023-05-15T11:40:23;22.30;59.60
9919;DHT22;4998;51.024;13.828;2023-05-15T11:43:04;22.40;59.40
9919;DHT22;4998;51.024;13.828;2023-05-15T11:45:34;22.50;59.30
9919;DHT22;4998;51.024;13.828;2023-05-15T11:48:03;22.60;59.50
9919;DHT22;4998;51.024;13.828;2023-05-15T11:50:31;22.70;59.50
9919;DHT22;4998;51.024;13.828;2023-05-15T11:53:02;22.80;58.30
9919;DHT22;4998;51.024;13.828;2023-05-15T11:55:31;22.90;57.80
9919;DHT22;4998;51.024;13.828;2023-05-15T11:57:58;22.90;57.40
9919;DHT22;4998;51.024;13.828;2023-05-15T12:00:26;22.90;57.20
9919;DHT22;4998;51.024;13.828;2023-05-15T12:02:53;22.90;56.90
9919;DHT22;4998;51.024;13.828;2023-05-15T12:05:22;22.80;56.40
9919;DHT22;4998;51.024;13.828;2023-05-15T12:07:49;22.70;56.10
9919;DHT22;4998;51.024;13.828;2023-05-15T12:10:17;22.60;56.20
9919;DHT22;4998;51.024;13.828;2023-05-15T12:12:44;22.40;56.40
9919;DHT22;4998;51.024;13.828;2023-05-15T12:15:13;22.30;57.20
9919;DHT22;4998;51.024;13.828;2023-05-15T12:17:43;22.10;57.60
9919;DHT22;4998;51.024;13.828;2023-05-15T12:20:13;21.90;57.90
9919;DHT22;4998;51.024;13.828;2023-05-15T12:22:41;21.80;58.20
9919;DHT22;4998;51.024;13.828;2023-05-15T12:25:09;21.60;58.40
9919;DHT22;4998;51.024;13.828;2023-05-15T12:27:38;21.40;58.60
9919;DHT22;4998;51.024;13.828;2023-05-15T12:30:06;21.20;59.00
9919;DHT22;4998;51.024;13.828;2023-05-15T12:32:34;21.10;59.20
9919;DHT22;4998;51.024;13.828;2023-05-15T12:35:03;20.90;59.60
9919;DHT22;4998;51.024;13.828;2023-05-15T12:37:31;20.80;59.70
9919;DHT22;4998;51.024;13.828;2023-05-15T12:40:02;20.70;59.80
9919;DHT22;4998;51.024;13.828;2023-05-15T12:42:38;20.60;60.20
9919;DHT22;4998;51.024;13.828;2023-05-15T12:45:11;20.50;60.80
9919;DHT22;4998;51.024;13.828;2023-05-15T12:47:39;20.50;61.10
9919;DHT22;4998;51.024;13.828;2023-05-15T12:50:12;20.50;61.00
9919;DHT22;4998;51.024;13.828;2023-05-15T12:52:39;20.50;61.40
9919;DHT22;4998;51.024;13.828;2023-05-15T12:55:14;20.50;61.80
9919;DHT22;4998;51.024;13.828;2023-05-15T12:57:42;20.50;62.00
9919;DHT22;4998;51.024;13.828;2023-05-15T13:00:10;20.60;62.00
9919;DHT22;4998;51.024;13.828;2023-05-15T13:02:39;20.70;62.30
9919;DHT22;4998;51.024;13.828;2023-05-15T13:05:08;20.70;62.80
9919;DHT22;4998;51.024;13.828;2023-05-15T13:07:35;20.80;63.80
9919;DHT22;4998;51.024;13.828;2023-05-15T13:10:04;21.00;64.80
9919;DHT22;4998;51.024;13.828;2023-05-15T13:12:38;21.10;65.70
9919;DHT22;4998;51.024;13.828;2023-05-15T13:15:06;21.30;65.90
9919;DHT22;4998;51.024;13.828;2023-05-15T13:17:33;21.50;65.50
9919;DHT22;4998;51.024;13.828;2023-05-15T13:20:00;21.70;64.70
9919;DHT22;4998;51.024;13.828;2023-05-15T13:22:30;21.90;63.90
9919;DHT22;4998;51.024;13.828;2023-05-15T13:24:57;22.00;63.30
9919;DHT22;4998;51.024;13.828;2023-05-15T13:27:24;22.20;62.80
9919;DHT22;4998;51.024;13.828;2023-05-15T13:29:53;22.20;63.00
9919;DHT22;4998;51.024;13.828;2023-05-15T13:32:20;22.30;64.20
9919;DHT22;4998;51.024;13.828;2023-05-15T13:34:48;22.30;65.10
9919;DHT22;4998;51.024;13.828;2023-05-15T13:37:15;22.20;64.40
9919;DHT22;4998;51.024;13.828;2023-05-15T13:39:42;22.10;64.90
9919;DHT22;4998;51.024;13.828;2023-05-15T13:42:09;21.80;68.10
9919;DHT22;4998;51.024;13.828;2023-05-15T13:44:36;21.50;69.60
9919;DHT22;4998;51.024;13.828;2023-05-15T13:47:05;21.20;71.30
9919;DHT22;4998;51.024;13.828;2023-05-15T13:49:31;21.00;73.30
9919;DHT22;4998;51.024;13.828;2023-05-15T13:51:58;20.70;73.90
9919;DHT22;4998;51.024;13.828;2023-05-15T13:54:25;20.50;75.30
9919;DHT22;4998;51.024;13.828;2023-05-15T13:56:52;20.30;77.20
9919;DHT22;4998;51.024;13.828;2023-05-15T13:59:19;20.10;79.10
9919;DHT22;4998;51.024;13.828;2023-05-15T14:01:46;19.90;81.70
9919;DHT22;4998;51.024;13.828;2023-05-15T14:04:15;19.80;83.50
9919;DHT22;4998;51.024;13.828;2023-05-15T14:06:42;19.80;85.50
9919;DHT22;4998;51.024;13.828;2023-05-15T14:09:09;19.70;86.80
9919;DHT22;4998;51.024;13.828;2023-05-15T14:11:36;19.70;88.50
9919;DHT22;4998;51.024;13.828;2023-05-15T14:14:03;19.70;89.70
9919;DHT22;4998;51.024;13.828;2023-05-15T14:16:30;19.80;90.40
9919;DHT22;4998;51.024;13.828;2023-05-15T14:18:57;19.80;90.90
9919;DHT22;4998;51.024;13.828;2023-05-15T14:21:25;19.90;91.60
9919;DHT22;4998;51.024;13.828;2023-05-15T14:23:52;20.00;91.70
9919;DHT22;4998;51.024;13.828;2023-05-15T14:26:19;20.10;91.60
9919;DHT22;4998;51.024;13.828;2023-05-15T14:28:46;20.10;91.60
9919;DHT22;4998;51.024;13.828;2023-05-15T14:31:13;20.20;91.70
9919;DHT22;4998;51.024;13.828;2023-05-15T14:33:40;20.30;91.90
9919;DHT22;4998;51.024;13.828;2023-05-15T14:36:07;20.40;91.60
9919;DHT22;4998;51.024;13.828;2023-05-15T14:38:36;20.50;91.60
9919;DHT22;4998;51.024;13.828;2023-05-15T14:41:04;20.50;91.70
9919;DHT22;4998;51.024;13.828;2023-05-15T14:43:31;20.60;91.80
9919;DHT22;4998;51.024;13.828;2023-05-15T14:45:58;20.70;92.00
9919;DHT22;4998;51.024;13.828;2023-05-15T14:48:25;20.80;92.10
9919;DHT22;4998;51.024;13.828;2023-05-15T14:50:52;20.90;91.40
9919;DHT22;4998;51.024;13.828;2023-05-15T14:53:19;21.00;90.40
9919;DHT22;4998;51.024;13.828;2023-05-15T14:55:47;21.10;89.50
9919;DHT22;4998;51.024;13.828;2023-05-15T14:58:14;21.20;90.00
9919;DHT22;4998;51.024;13.828;2023-05-15T15:00:41;21.20;87.70
9919;DHT22;4998;51.024;13.828;2023-05-15T15:03:09;21.30;87.40
9919;DHT22;4998;51.024;13.828;2023-05-15T15:05:36;21.40;85.90
9919;DHT22;4998;51.024;13.828;2023-05-15T15:08:05;21.40;85.30
9919;DHT22;4998;51.024;13.828;2023-05-15T15:10:34;21.40;84.40
9919;DHT22;4998;51.024;13.828;2023-05-15T15:13:03;21.50;84.20
9919;DHT22;4998;51.024;13.828;2023-05-15T15:15:31;21.40;84.60
9919;DHT22;4998;51.024;13.828;2023-05-15T15:17:59;21.50;85.10
9919;DHT22;4998;51.024;13.828;2023-05-15T15:20:26;21.50;85.20
9919;DHT22;4998;51.024;13.828;2023-05-15T15:22:54;21.50;84.20
9919;DHT22;4998;51.024;13.828;2023-05-15T15:25:21;21.60;83.60
9919;DHT22;4998;51.024;13.828;2023-05-15T15:27:49;21.70;84.30
9919;DHT22;4998;51.024;13.828;2023-05-15T15:30:17;21.80;83.20
9919;DHT22;4998;51.024;13.828;2023-05-15T15:32:45;21.90;82.60
9919;DHT22;4998;51.024;13.828;2023-05-15T15:35:12;22.00;81.10
9919;DHT22;4998;51.024;13.828;2023-05-15T15:37:39;22.10;79.70
9919;DHT22;4998;51.024;13.828;2023-05-15T15:40:07;22.20;79.60
9919;DHT22;4998;51.024;13.828;2023-05-15T15:42:34;22.30;77.80
9919;DHT22;4998;51.024;13.828;2023-05-15T15:45:02;22.30;78.60
9919;DHT22;4998;51.024;13.828;2023-05-15T15:47:30;22.30;78.30
9919;DHT22;4998;51.024;13.828;2023-05-15T15:49:57;22.40;77.80
9919;DHT22;4998;51.024;13.828;2023-05-15T15:52:25;22.40;78.10
9919;DHT22;4998;51.024;13.828;2023-05-15T15:54:52;22.40;78.20